createdAt,value
2022-10-22T00:03:12.808Z,14.8
2022-10-22T00:13:12.760Z,14.8
2022-10-22T00:23:12.749Z,14.7
2022-10-22T00:33:12.707Z,14.8
2022-10-22T00:43:12.718Z,14.8
2022-10-22T00:53:12.719Z,14.8
2022-10-22T01:03:12.649Z,14.8
2022-10-22T01:13:12.657Z,14.8
2022-10-22T01:23:12.656Z,14.9
2022-10-22T01:33:12.589Z,14.8
2022-10-22T01:43:12.613Z,14.8
2022-10-22T01:53:12.585Z,14.8
2022-10-22T02:03:12.556Z,14.8
2022-10-22T02:13:12.565Z,14.8
2022-10-22T02:23:12.549Z,14.7
2022-10-22T02:33:12.511Z,14.7
2022-10-22T02:43:12.503Z,14.7
2022-10-22T02:53:12.492Z,14.7
2022-10-22T03:03:12.430Z,14.7
2022-10-22T03:13:12.480Z,14.7
2022-10-22T03:23:12.395Z,14.6
2022-10-22T03:33:12.389Z,14.7
2022-10-22T03:43:12.422Z,14.6
2022-10-22T03:53:12.343Z,14.6
2022-10-22T04:03:12.330Z,14.5
2022-10-22T04:13:12.359Z,14.5
2022-10-22T04:23:12.299Z,14.5
2022-10-22T04:33:12.294Z,14.4
2022-10-22T04:43:12.311Z,14.4
2022-10-22T04:53:12.257Z,14.3
2022-10-22T05:03:12.243Z,14.2
2022-10-22T05:13:12.257Z,14
2022-10-22T05:23:12.191Z,13.9
2022-10-22T05:33:12.191Z,13.7
2022-10-22T05:43:12.217Z,13.6
2022-10-22T05:53:12.176Z,13.4
2022-10-22T06:03:12.144Z,13.3
2022-10-22T06:13:12.140Z,13.3
2022-10-22T06:23:12.103Z,13.3
2022-10-22T06:33:12.082Z,13.2
2022-10-22T06:43:12.099Z,13.2
2022-10-22T06:53:12.133Z,13.2
2022-10-22T07:03:12.035Z,13.3
2022-10-22T07:13:12.045Z,13.5
2022-10-22T07:23:12.025Z,13.6
2022-10-22T07:33:11.985Z,13.6
2022-10-22T07:43:12.005Z,13.7
2022-10-22T07:53:11.998Z,13.7
2022-10-22T08:03:11.949Z,13.7
2022-10-22T08:13:11.912Z,14
2022-10-22T08:23:11.925Z,14.3
2022-10-22T08:33:11.892Z,14.8
2022-10-22T08:43:11.892Z,15
2022-10-22T08:53:11.879Z,14.8
2022-10-22T09:03:11.838Z,14.8
2022-10-22T09:13:11.788Z,15
2022-10-22T09:23:11.829Z,15.1
2022-10-22T09:33:11.793Z,15.3
2022-10-22T09:43:11.755Z,16.5
2022-10-22T09:53:11.761Z,18.7
2022-10-22T10:03:11.739Z,20.4
2022-10-22T10:13:11.720Z,21.6
2022-10-22T10:23:11.734Z,22.6
2022-10-22T10:33:11.675Z,23.1
2022-10-22T10:53:11.662Z,24.4
2022-10-22T11:03:11.600Z,24.6
2022-10-22T11:13:11.591Z,25.2
2022-10-22T11:23:20.790Z,26.2
2022-10-22T11:33:11.564Z,25.3
2022-10-22T11:43:11.527Z,24.3
2022-10-22T12:03:11.483Z,25.2
2022-10-22T12:13:11.468Z,25.3
2022-10-22T12:23:11.481Z,25.1
2022-10-22T12:33:11.413Z,25.4
2022-10-22T12:43:11.451Z,26.3
2022-10-22T12:53:11.446Z,26.8
2022-10-22T13:03:11.353Z,27.4
2022-10-22T13:13:11.372Z,27.7
2022-10-22T13:23:11.432Z,28
2022-10-22T13:33:11.329Z,28.4
2022-10-22T13:43:11.312Z,28.2
2022-10-22T13:53:11.658Z,28.1
2022-10-22T14:03:11.235Z,28.3
2022-10-22T14:13:11.272Z,28.1
2022-10-22T14:23:11.274Z,27.6
2022-10-22T14:33:11.161Z,26.3
2022-10-22T14:43:11.183Z,25.7
2022-10-22T14:53:11.183Z,25.9
2022-10-22T15:13:11.193Z,24.8
2022-10-22T15:23:11.100Z,24.1
2022-10-22T15:33:11.067Z,23.6
2022-10-22T15:43:11.063Z,23
2022-10-22T15:53:11.046Z,22.2
2022-10-22T16:03:10.982Z,21.6
2022-10-22T16:13:10.998Z,21.1
2022-10-22T16:23:10.968Z,20.8
2022-10-22T16:33:10.943Z,20.3
2022-10-22T16:43:10.942Z,19.7
2022-10-22T16:53:10.948Z,19.1
2022-10-22T17:03:10.855Z,18.8
2022-10-22T17:13:10.883Z,18.7
2022-10-22T17:23:10.813Z,18.5
2022-10-22T17:33:10.800Z,18.3
2022-10-22T17:43:10.818Z,18
2022-10-22T17:53:10.754Z,17.7
2022-10-22T18:03:10.739Z,17.4
2022-10-22T18:13:10.796Z,17
2022-10-22T18:23:10.715Z,16.8
2022-10-22T18:33:10.697Z,16.5
2022-10-22T18:43:10.739Z,16.3
2022-10-22T18:53:10.650Z,16
2022-10-22T19:03:10.626Z,15.9
2022-10-22T19:13:10.645Z,15.9
2022-10-22T19:33:10.589Z,15.8
2022-10-22T19:43:10.589Z,15.7
2022-10-22T19:53:10.534Z,15.5
2022-10-22T20:03:10.521Z,15.4
2022-10-22T20:13:10.531Z,15.3
2022-10-22T20:23:10.491Z,15.1
2022-10-22T20:33:10.461Z,14.9
2022-10-22T20:43:12.314Z,14.9
2022-10-22T20:53:13.407Z,14.9
2022-10-22T21:03:10.419Z,14.7
2022-10-22T21:13:10.447Z,14.6
2022-10-22T21:23:10.365Z,14.6
2022-10-22T21:33:10.367Z,14.5
2022-10-22T21:43:10.361Z,14.6
2022-10-22T21:53:10.335Z,14.6
2022-10-22T22:03:10.286Z,14.5
2022-10-22T22:13:10.322Z,14.5
2022-10-22T22:23:10.288Z,14.3
2022-10-22T22:33:10.255Z,14.2
2022-10-22T22:43:10.224Z,14.1
2022-10-22T22:53:10.235Z,14
2022-10-22T23:03:10.188Z,13.9
2022-10-22T23:13:10.192Z,13.9
2022-10-22T23:23:10.185Z,13.8
2022-10-22T23:33:10.135Z,13.7
2022-10-22T23:43:10.140Z,13.7
2022-10-22T23:53:10.125Z,13.7
